createdAt,value
2018-08-22T00:01:19.600Z,19.80
2018-08-22T00:03:52.855Z,19.80
2018-08-22T00:06:24.920Z,19.80
2018-08-22T00:11:52.601Z,19.70
2018-08-22T00:14:21.444Z,19.60
2018-08-22T00:17:01.084Z,19.50
2018-08-22T00:19:29.972Z,19.50
2018-08-22T00:21:58.732Z,19.50
2018-08-22T00:24:43.959Z,19.50
2018-08-22T00:27:12.765Z,19.40
2018-08-22T00:29:59.239Z,19.30
2018-08-22T00:32:30.035Z,19.30
2018-08-22T00:35:02.955Z,19.20
2018-08-22T00:37:48.032Z,19.20
2018-08-22T00:40:21.970Z,19.10
2018-08-22T00:42:57.263Z,19.00
2018-08-22T00:45:26.203Z,19.10
2018-08-22T00:48:19.005Z,19.00
2018-08-22T00:51:00.706Z,18.90
2018-08-22T00:53:35.112Z,18.90
2018-08-22T00:56:14.268Z,18.90
2018-08-22T00:58:48.611Z,18.80
2018-08-22T01:01:17.423Z,18.80
2018-08-22T01:03:46.208Z,18.90
2018-08-22T01:06:22.495Z,18.80
2018-08-22T01:08:52.260Z,18.80
2018-08-22T01:11:23.052Z,18.90
2018-08-22T01:13:51.876Z,18.90
2018-08-22T01:16:22.632Z,18.90
2018-08-22T01:21:49.080Z,18.80
2018-08-22T01:24:23.424Z,18.80
2018-08-22T01:26:59.379Z,18.70
2018-08-22T01:29:33.763Z,18.70
2018-08-22T01:32:23.187Z,18.70
2018-08-22T01:34:59.180Z,18.70
2018-08-22T01:37:29.960Z,18.60
2018-08-22T01:39:59.743Z,18.70
2018-08-22T01:42:33.344Z,18.60
2018-08-22T01:45:20.521Z,18.60
2018-08-22T01:48:06.687Z,18.50
2018-08-22T01:50:53.327Z,18.50
2018-08-22T01:53:25.547Z,18.50
2018-08-22T01:56:01.832Z,18.50
2018-08-22T01:58:30.583Z,18.40
2018-08-22T02:01:01.312Z,18.30
2018-08-22T02:03:43.788Z,18.30
2018-08-22T02:06:12.603Z,18.10
2018-08-22T02:08:47.272Z,18.00
2018-08-22T02:11:21.764Z,17.90
2018-08-22T02:13:57.204Z,17.80
2018-08-22T02:16:37.412Z,17.70
2018-08-22T02:19:10.412Z,17.60
2018-08-22T02:21:50.120Z,17.60
2018-08-22T02:24:22.792Z,17.70
2018-08-22T02:26:52.583Z,17.70
2018-08-22T02:29:22.390Z,17.70
2018-08-22T02:31:58.184Z,17.80
2018-08-22T02:34:39.069Z,17.90
2018-08-22T02:37:09.857Z,18.00
2018-08-22T02:39:38.644Z,18.10
2018-08-22T02:42:07.427Z,18.20
2018-08-22T02:47:32.879Z,18.20
2018-08-22T02:50:03.787Z,18.30
2018-08-22T02:52:38.484Z,18.30
2018-08-22T02:55:07.320Z,18.40
2018-08-22T02:57:36.091Z,18.40
2018-08-22T03:00:22.467Z,18.30
2018-08-22T03:03:02.395Z,18.30
2018-08-22T03:05:35.981Z,18.30
2018-08-22T03:08:05.975Z,18.20
2018-08-22T03:10:45.325Z,18.10
2018-08-22T03:13:14.107Z,18.00
2018-08-22T03:15:44.959Z,17.90
2018-08-22T03:18:16.983Z,17.90
2018-08-22T03:21:02.019Z,17.80
2018-08-22T03:23:30.871Z,17.70
2018-08-22T03:25:59.668Z,17.60
2018-08-22T03:28:29.504Z,17.50
2018-08-22T03:30:58.350Z,17.50
2018-08-22T03:33:29.183Z,17.40
2018-08-22T03:35:58.987Z,17.40
2018-08-22T03:38:34.876Z,17.30
2018-08-22T03:41:13.891Z,17.20
2018-08-22T03:43:50.899Z,17.20
2018-08-22T03:46:21.672Z,17.20
2018-08-22T03:48:54.376Z,17.20
2018-08-22T03:51:23.159Z,17.20
2018-08-22T03:53:51.931Z,17.20
2018-08-22T03:56:21.767Z,17.20
2018-08-22T03:58:51.572Z,17.10
2018-08-22T04:01:34.251Z,17.10
2018-08-22T04:04:21.151Z,17.20
2018-08-22T04:06:56.647Z,17.10
2018-08-22T04:15:26.240Z,17.20
2018-08-22T04:17:55.980Z,17.20
2018-08-22T04:20:36.797Z,17.20
2018-08-22T04:23:05.604Z,17.10
2018-08-22T04:28:28.419Z,17.10
2018-08-22T04:34:04.751Z,17.30
2018-08-22T04:42:21.732Z,17.60
2018-08-22T04:45:11.378Z,17.60
2018-08-22T04:47:51.612Z,17.70
2018-08-22T04:50:32.688Z,17.70
2018-08-22T04:53:20.232Z,17.60
2018-08-22T04:55:59.231Z,17.60
2018-08-22T05:01:21.764Z,17.60
2018-08-22T05:06:44.631Z,17.60
2018-08-22T05:09:17.415Z,17.70
2018-08-22T05:11:50.552Z,17.80
2018-08-22T05:14:19.443Z,18.00
2018-08-22T05:16:49.204Z,18.10
2018-08-22T05:19:19.023Z,18.30
2018-08-22T05:21:47.800Z,18.50
2018-08-22T05:24:21.715Z,18.70
2018-08-22T05:26:54.699Z,18.90
2018-08-22T05:29:27.835Z,19.00
2018-08-22T05:32:01.076Z,19.20
2018-08-22T05:34:44.159Z,19.30
2018-08-22T05:37:15.103Z,19.50
2018-08-22T05:40:00.271Z,19.60
2018-08-22T05:42:32.275Z,19.60
2018-08-22T05:45:01.059Z,19.60
2018-08-22T05:47:31.795Z,19.70
2018-08-22T05:50:00.579Z,20.00
2018-08-22T05:52:29.388Z,20.20
2018-08-22T05:55:00.227Z,20.50
2018-08-22T05:57:30.077Z,20.70
2018-08-22T06:00:05.016Z,20.80
2018-08-22T06:02:37.331Z,20.90
2018-08-22T06:05:11.803Z,20.90
2018-08-22T06:07:44.215Z,21.10
2018-08-22T06:10:14.937Z,21.20
2018-08-22T06:12:47.523Z,21.10
2018-08-22T06:15:22.199Z,20.90
2018-08-22T06:18:04.176Z,21.00
2018-08-22T06:20:48.328Z,21.30
2018-08-22T06:23:20.970Z,21.60
2018-08-22T06:25:51.720Z,21.90
2018-08-22T06:28:21.652Z,22.20
2018-08-22T06:30:51.392Z,22.40
2018-08-22T06:33:21.108Z,22.60
2018-08-22T06:35:55.360Z,22.70
2018-08-22T06:38:29.040Z,22.90
2018-08-22T06:40:59.772Z,23.10
2018-08-22T06:43:29.585Z,23.10
2018-08-22T06:45:59.348Z,23.10
2018-08-22T06:48:29.082Z,23.10
2018-08-22T06:51:00.999Z,23.20
2018-08-22T06:53:29.780Z,23.30
2018-08-22T06:55:59.588Z,23.50
2018-08-22T06:58:30.444Z,23.70
2018-08-22T07:00:59.223Z,23.90
2018-08-22T07:03:34.428Z,24.00
2018-08-22T07:06:19.532Z,24.30
2018-08-22T07:09:00.444Z,24.50
2018-08-22T07:11:38.732Z,24.80
2018-08-22T07:14:08.023Z,24.90
2018-08-22T07:16:37.900Z,25.30
2018-08-22T07:19:14.625Z,25.80
2018-08-22T07:21:44.392Z,26.30
2018-08-22T07:24:18.460Z,26.40
2018-08-22T07:26:47.292Z,26.40
2018-08-22T07:29:20.600Z,26.50
2018-08-22T07:31:49.316Z,26.50
2018-08-22T07:34:20.068Z,26.30
2018-08-22T07:36:55.196Z,26.50
2018-08-22T07:39:23.932Z,26.60
2018-08-22T07:41:53.639Z,27.00
2018-08-22T07:44:22.360Z,27.50
2018-08-22T07:46:59.971Z,27.70
2018-08-22T07:55:20.335Z,28.50
2018-08-22T07:57:49.060Z,28.70
2018-08-22T08:00:23.408Z,29.00
2018-08-22T08:02:52.241Z,29.10
2018-08-22T08:05:21.058Z,29.30
2018-08-22T08:07:57.071Z,29.90
2018-08-22T08:10:34.459Z,30.40
2018-08-22T08:13:03.788Z,30.90
2018-08-22T08:15:46.155Z,31.50
2018-08-22T08:18:18.167Z,31.40
2018-08-22T08:20:46.892Z,31.60
2018-08-22T08:23:16.615Z,31.90
2018-08-22T08:25:45.339Z,32.20
2018-08-22T08:28:17.835Z,32.30
2018-08-22T08:31:00.683Z,32.50
2018-08-22T08:33:42.803Z,32.30
2018-08-22T08:36:12.589Z,32.70
2018-08-22T08:38:43.256Z,33.00
2018-08-22T08:41:19.634Z,33.60
2018-08-22T08:43:53.467Z,33.80
2018-08-22T08:46:23.251Z,34.10
2018-08-22T08:48:53.991Z,34.30
2018-08-22T08:51:22.767Z,34.80
2018-08-22T08:53:53.487Z,35.60
2018-08-22T08:56:34.611Z,36.10
2018-08-22T08:59:04.387Z,35.80
2018-08-22T09:01:36.363Z,36.30
2018-08-22T09:04:10.803Z,36.20
2018-08-22T09:07:02.551Z,35.90
2018-08-22T09:09:34.875Z,36.30
2018-08-22T09:12:07.949Z,35.70
2018-08-22T09:14:40.119Z,35.90
2018-08-22T09:17:19.551Z,36.70
2018-08-22T09:19:54.256Z,37.30
2018-08-22T09:22:25.015Z,37.30
2018-08-22T09:25:01.211Z,37.50
2018-08-22T09:27:30.991Z,38.40
2018-08-22T09:30:17.555Z,39.00
2018-08-22T09:32:56.967Z,39.00
2018-08-22T09:35:30.037Z,38.80
2018-08-22T09:38:05.815Z,39.10
2018-08-22T09:40:35.537Z,39.20
2018-08-22T09:43:06.276Z,39.50
2018-08-22T09:45:37.043Z,40.30
2018-08-22T09:48:19.921Z,39.80
2018-08-22T09:50:52.376Z,39.30
2018-08-22T09:53:21.139Z,39.20
2018-08-22T09:55:51.879Z,39.60
2018-08-22T09:58:20.691Z,40.70
2018-08-22T10:00:54.841Z,41.00
2018-08-22T10:03:23.646Z,40.90
2018-08-22T10:05:53.462Z,41.50
2018-08-22T10:08:23.083Z,41.40
2018-08-22T10:10:57.728Z,41.00
2018-08-22T10:13:26.508Z,40.20
2018-08-22T10:15:58.339Z,40.70
2018-08-22T10:18:34.619Z,41.20
2018-08-22T10:21:09.199Z,41.80
2018-08-22T10:23:38.971Z,41.10
2018-08-22T10:26:12.751Z,40.70
2018-08-22T10:28:51.547Z,40.10
2018-08-22T10:31:21.579Z,40.60
2018-08-22T10:33:54.964Z,41.50
2018-08-22T10:36:29.715Z,42.90
2018-08-22T10:38:58.431Z,43.80
2018-08-22T10:41:28.256Z,42.20
2018-08-22T10:44:01.004Z,41.60
2018-08-22T10:46:29.728Z,41.60
2018-08-22T10:49:00.512Z,42.60
2018-08-22T10:51:32.607Z,42.30
2018-08-22T10:54:04.652Z,43.30
2018-08-22T10:56:34.266Z,42.80
2018-08-22T10:59:06.528Z,43.20
2018-08-22T11:01:39.424Z,43.20
2018-08-22T11:04:14.889Z,43.00
2018-08-22T11:06:43.603Z,42.60
2018-08-22T11:09:12.331Z,43.30
2018-08-22T11:11:42.056Z,43.50
2018-08-22T11:14:13.231Z,45.10
2018-08-22T11:16:48.034Z,45.90
2018-08-22T11:19:20.508Z,46.20
2018-08-22T11:22:00.665Z,46.20
2018-08-22T11:24:40.875Z,44.80
2018-08-22T11:27:24.666Z,45.10
2018-08-22T11:30:08.491Z,45.40
2018-08-22T11:32:48.747Z,44.80
2018-08-22T11:35:16.521Z,43.00
2018-08-22T11:37:49.043Z,40.90
2018-08-22T11:40:19.788Z,40.50
2018-08-22T11:42:55.379Z,39.90
2018-08-22T11:45:24.166Z,39.40
2018-08-22T11:47:54.883Z,41.80
2018-08-22T11:50:33.223Z,43.40
2018-08-22T11:53:01.940Z,43.60
2018-08-22T11:55:30.735Z,41.20
2018-08-22T11:58:00.555Z,38.80
2018-08-22T12:00:30.455Z,37.40
2018-08-22T12:02:59.273Z,36.90
2018-08-22T12:05:28.016Z,36.40
2018-08-22T12:07:56.858Z,37.90
2018-08-22T12:10:32.085Z,38.80
2018-08-22T12:13:03.517Z,38.40
2018-08-22T12:15:37.239Z,40.00
2018-08-22T12:18:13.751Z,42.90
2018-08-22T12:20:49.159Z,44.30
2018-08-22T12:23:18.898Z,44.80
2018-08-22T12:25:51.359Z,46.70
2018-08-22T12:28:21.168Z,46.80
2018-08-22T12:31:02.036Z,44.00
2018-08-22T12:33:30.816Z,41.80
2018-08-22T12:35:59.575Z,39.10
2018-08-22T12:38:41.894Z,37.40
2018-08-22T12:41:10.720Z,36.30
2018-08-22T12:43:41.523Z,35.40
2018-08-22T12:46:15.428Z,34.60
2018-08-22T12:48:50.423Z,34.90
2018-08-22T12:51:19.343Z,38.00
2018-08-22T12:53:48.139Z,38.60
2018-08-22T12:56:18.875Z,40.30
2018-08-22T12:58:49.699Z,41.80
2018-08-22T13:01:18.508Z,42.60
2018-08-22T13:03:52.903Z,43.10
2018-08-22T13:06:21.623Z,40.90
2018-08-22T13:08:54.588Z,38.90
2018-08-22T13:11:23.430Z,38.80
2018-08-22T13:13:52.169Z,42.00
2018-08-22T13:16:22.023Z,44.20
2018-08-22T13:18:50.781Z,45.70
2018-08-22T13:21:20.500Z,47.30
2018-08-22T13:23:56.521Z,46.80
2018-08-22T13:26:26.239Z,43.50
2018-08-22T13:28:56.227Z,40.30
2018-08-22T13:31:29.513Z,37.90
2018-08-22T13:34:00.495Z,39.40
2018-08-22T13:36:30.225Z,41.20
2018-08-22T13:39:00.014Z,40.50
2018-08-22T13:41:32.843Z,41.80
2018-08-22T13:44:01.547Z,41.90
2018-08-22T13:46:32.306Z,42.90
2018-08-22T13:49:02.132Z,42.10
2018-08-22T13:51:33.847Z,42.50
2018-08-22T13:54:13.275Z,42.20
2018-08-22T13:56:42.111Z,42.20
2018-08-22T13:59:11.831Z,42.40
2018-08-22T14:01:47.095Z,43.10
2018-08-22T14:04:15.723Z,43.10
2018-08-22T14:06:50.716Z,40.70
2018-08-22T14:09:33.963Z,40.30
2018-08-22T14:12:18.837Z,39.60
2018-08-22T14:14:49.555Z,38.50
2018-08-22T14:17:20.264Z,40.60
2018-08-22T14:19:50.043Z,41.80
2018-08-22T14:22:18.789Z,43.30
2018-08-22T14:24:51.019Z,44.90
2018-08-22T14:27:19.744Z,46.10
2018-08-22T14:29:48.579Z,46.20
2018-08-22T14:32:17.346Z,45.40
2018-08-22T14:34:48.114Z,44.30
2018-08-22T14:37:20.465Z,44.30
2018-08-22T14:39:54.164Z,44.70
2018-08-22T14:42:26.892Z,46.10
2018-08-22T14:44:57.569Z,46.00
2018-08-22T14:47:28.342Z,45.00
2018-08-22T14:50:00.819Z,43.40
2018-08-22T14:52:35.011Z,41.30
2018-08-22T14:55:03.744Z,39.40
2018-08-22T14:57:32.452Z,38.40
2018-08-22T15:00:04.851Z,37.30
2018-08-22T15:02:33.675Z,37.20
2018-08-22T15:05:03.491Z,38.00
2018-08-22T15:07:33.259Z,39.40
2018-08-22T15:10:02.051Z,39.30
2018-08-22T15:12:36.038Z,38.30
2018-08-22T15:15:04.834Z,37.00
2018-08-22T15:17:33.566Z,36.30
2018-08-22T15:20:04.407Z,37.40
2018-08-22T15:22:34.126Z,39.60
2018-08-22T15:25:02.871Z,41.70
2018-08-22T15:27:38.542Z,42.90
2018-08-22T15:30:08.554Z,43.40
2018-08-22T15:32:37.325Z,42.60
2018-08-22T15:35:11.215Z,42.80
2018-08-22T15:37:45.802Z,42.00
2018-08-22T15:40:15.614Z,42.80
2018-08-22T15:42:45.350Z,41.40
2018-08-22T15:45:14.154Z,41.70
2018-08-22T15:47:43.998Z,41.50
2018-08-22T15:50:14.686Z,41.80
2018-08-22T15:52:43.486Z,42.30
2018-08-22T15:55:15.434Z,42.30
2018-08-22T15:58:01.938Z,42.00
2018-08-22T16:00:43.255Z,41.40
2018-08-22T16:03:17.622Z,41.10
2018-08-22T16:05:47.342Z,41.00
2018-08-22T16:08:21.376Z,41.30
2018-08-22T16:10:50.158Z,41.60
2018-08-22T16:13:25.379Z,41.10
2018-08-22T16:15:57.051Z,39.50
2018-08-22T16:18:25.880Z,38.40
2018-08-22T16:21:02.687Z,38.00
2018-08-22T16:23:33.266Z,38.40
2018-08-22T16:26:06.650Z,38.60
2018-08-22T16:28:51.190Z,38.80
2018-08-22T16:31:20.691Z,38.60
2018-08-22T16:33:50.531Z,38.80
2018-08-22T16:36:25.606Z,38.90
2018-08-22T16:39:00.266Z,39.00
2018-08-22T16:41:31.014Z,39.30
2018-08-22T16:44:07.643Z,38.90
2018-08-22T16:46:41.270Z,38.20
2018-08-22T16:49:11.105Z,37.70
2018-08-22T16:51:44.182Z,37.40
2018-08-22T16:54:17.183Z,37.20
2018-08-22T16:56:52.554Z,36.80
2018-08-22T16:59:23.142Z,36.70
2018-08-22T17:01:52.202Z,36.60
2018-08-22T17:04:26.494Z,35.90
2018-08-22T17:06:57.142Z,35.60
2018-08-22T17:09:27.776Z,35.30
2018-08-22T17:11:56.514Z,34.70
2018-08-22T17:14:29.422Z,34.30
2018-08-22T17:16:59.218Z,34.20
2018-08-22T17:19:29.038Z,34.00
2018-08-22T17:21:58.862Z,33.60
2018-08-22T17:24:30.678Z,33.30
2018-08-22T17:27:01.446Z,32.80
2018-08-22T17:29:30.206Z,32.60
2018-08-22T17:32:04.006Z,32.40
2018-08-22T17:34:32.870Z,32.30
2018-08-22T17:37:06.471Z,31.90
2018-08-22T17:39:40.518Z,31.40
2018-08-22T17:42:11.286Z,31.20
2018-08-22T17:44:41.071Z,31.10
2018-08-22T17:47:13.470Z,31.00
2018-08-22T17:49:43.538Z,30.90
2018-08-22T17:52:16.355Z,30.70
2018-08-22T17:54:45.122Z,30.40
2018-08-22T17:57:21.295Z,30.10
2018-08-22T17:59:54.359Z,29.70
2018-08-22T18:02:25.122Z,29.40
2018-08-22T18:05:04.058Z,29.10
2018-08-22T18:07:33.885Z,29.00
2018-08-22T18:10:06.417Z,28.80
2018-08-22T18:12:39.441Z,28.70
2018-08-22T18:15:12.510Z,28.50
2018-08-22T18:17:41.294Z,28.30
2018-08-22T18:20:16.654Z,28.10
2018-08-22T18:22:56.014Z,28.00
2018-08-22T18:25:25.822Z,27.90
2018-08-22T18:27:59.835Z,27.80
2018-08-22T18:30:34.798Z,27.60
2018-08-22T18:33:03.647Z,27.50
2018-08-22T18:35:33.418Z,27.30
2018-08-22T18:38:02.210Z,27.10
2018-08-22T18:40:32.050Z,27.00
2018-08-22T18:43:03.134Z,26.80
2018-08-22T18:45:31.970Z,26.70
2018-08-22T18:48:02.461Z,26.50
2018-08-22T18:50:33.218Z,26.30
2018-08-22T18:53:02.793Z,26.00
2018-08-22T18:55:43.833Z,25.90
2018-08-22T18:58:18.318Z,25.80
2018-08-22T19:00:54.306Z,25.60
2018-08-22T19:03:27.176Z,25.50
2018-08-22T19:05:55.938Z,25.30
2018-08-22T19:08:24.766Z,25.20
2018-08-22T19:10:58.385Z,25.20
2018-08-22T19:13:28.174Z,25.00
2018-08-22T19:16:06.450Z,24.90
2018-08-22T19:18:35.318Z,24.80
2018-08-22T19:21:08.302Z,24.70
2018-08-22T19:23:41.142Z,24.50
2018-08-22T19:26:14.034Z,24.50
2018-08-22T19:28:54.842Z,24.40
2018-08-22T19:31:33.382Z,24.30
2018-08-22T19:34:08.058Z,24.20
2018-08-22T19:36:37.826Z,24.00
2018-08-22T19:39:09.786Z,23.80
2018-08-22T19:41:42.694Z,23.70
2018-08-22T19:44:11.858Z,23.70
2018-08-22T19:46:44.619Z,23.60
2018-08-22T19:49:16.618Z,23.60
2018-08-22T19:51:53.239Z,23.50
2018-08-22T19:54:22.103Z,23.40
2018-08-22T19:56:50.862Z,23.30
2018-08-22T19:59:19.662Z,23.20
2018-08-22T20:01:50.503Z,23.10
2018-08-22T20:04:21.346Z,23.10
2018-08-22T20:06:50.126Z,23.00
2018-08-22T20:09:18.930Z,23.10
2018-08-22T20:11:48.711Z,23.00
2018-08-22T20:14:17.510Z,23.00
2018-08-22T20:16:46.306Z,23.10
2018-08-22T20:19:15.082Z,23.10
2018-08-22T20:21:43.882Z,23.10
2018-08-22T20:24:16.566Z,23.10
2018-08-22T20:27:00.335Z,23.00
2018-08-22T20:29:30.162Z,22.80
2018-08-22T20:32:00.310Z,22.60
2018-08-22T20:34:32.318Z,22.50
2018-08-22T20:37:01.202Z,22.50
2018-08-22T20:39:31.036Z,22.40
2018-08-22T20:42:08.702Z,22.30
2018-08-22T20:44:40.282Z,22.30
2018-08-22T20:47:09.142Z,22.30
2018-08-22T20:49:43.686Z,22.30
2018-08-22T20:52:12.539Z,22.30
2018-08-22T20:54:43.377Z,22.20
2018-08-22T20:57:16.138Z,22.10
2018-08-22T20:59:46.898Z,22.00
2018-08-22T21:02:17.330Z,21.90
2018-08-22T21:04:49.771Z,21.80
2018-08-22T21:07:25.310Z,21.80
2018-08-22T21:09:59.130Z,21.70
2018-08-22T21:12:27.934Z,21.60
2018-08-22T21:15:00.402Z,21.50
2018-08-22T21:17:29.199Z,21.50
2018-08-22T21:19:57.994Z,21.30
2018-08-22T21:22:28.294Z,21.30
2018-08-22T21:25:00.899Z,21.20
2018-08-22T21:27:33.287Z,21.20
2018-08-22T21:30:05.526Z,21.10
2018-08-22T21:32:45.661Z,21.10
2018-08-22T21:35:22.545Z,21.00
2018-08-22T21:38:08.325Z,21.00
2018-08-22T21:40:40.354Z,21.10
2018-08-22T21:43:09.794Z,21.10
2018-08-22T21:45:40.746Z,21.20
2018-08-22T21:48:15.530Z,21.20
2018-08-22T21:50:45.045Z,21.20
2018-08-22T21:53:14.925Z,21.30
2018-08-22T21:55:50.857Z,21.40
2018-08-22T21:58:23.547Z,21.30
2018-08-22T22:00:52.305Z,21.20
2018-08-22T22:03:32.057Z,21.20
2018-08-22T22:06:03.481Z,21.20
2018-08-22T22:08:33.256Z,21.20
2018-08-22T22:11:07.815Z,21.10
2018-08-22T22:13:36.645Z,21.10
2018-08-22T22:16:05.945Z,21.20
2018-08-22T22:18:40.853Z,21.30
2018-08-22T22:21:13.497Z,21.30
2018-08-22T22:23:47.332Z,21.40
2018-08-22T22:26:17.327Z,21.40
2018-08-22T22:28:49.861Z,21.40
2018-08-22T22:31:20.661Z,21.30
2018-08-22T22:33:53.537Z,21.30
2018-08-22T22:36:25.537Z,21.20
2018-08-22T22:38:57.964Z,21.20
2018-08-22T22:41:31.049Z,21.10
2018-08-22T22:43:59.849Z,21.10
2018-08-22T22:46:28.665Z,21.00
2018-08-22T22:48:58.486Z,21.00
2018-08-22T22:51:28.266Z,20.90
2018-08-22T22:53:57.062Z,20.90
2018-08-22T22:56:25.850Z,20.90
2018-08-22T22:58:54.638Z,20.90
2018-08-22T23:01:29.269Z,21.10
2018-08-22T23:04:00.195Z,21.20
2018-08-22T23:06:32.821Z,21.20
2018-08-22T23:09:05.506Z,21.20
2018-08-22T23:11:39.813Z,21.00
2018-08-22T23:14:09.831Z,21.00
2018-08-22T23:16:38.605Z,20.90
2018-08-22T23:19:07.363Z,20.90
2018-08-22T23:21:37.201Z,20.80
2018-08-22T23:24:16.165Z,20.70
2018-08-22T23:26:45.925Z,20.70
2018-08-22T23:29:15.749Z,20.60
2018-08-22T23:31:45.533Z,20.50
2018-08-22T23:34:14.324Z,20.50
2018-08-22T23:36:48.432Z,20.40
2018-08-22T23:39:24.029Z,20.30
2018-08-22T23:41:56.670Z,20.20
2018-08-22T23:44:25.456Z,20.10
2018-08-22T23:46:54.229Z,20.00
2018-08-22T23:49:23.018Z,20.00
2018-08-22T23:51:51.805Z,20.00
2018-08-22T23:54:31.808Z,19.90
2018-08-22T23:57:05.693Z,19.80
2018-08-22T23:59:35.493Z,19.80
